Time;durP1;ratioP1;P1;durP2;ratioP2;P2;SDS_P1;SDS_P2;PMS_P1;PMS_P2;Temp;Humidity;BMP_temperature;BMP_pressure;BME280_temperature;BME280_humidity;BME280_pressure;Samples;Min_cycle;Max_cycle;Signal;HPM_P1;HPM_P2
2023/09/14 00:00:35;;;;;;;10.32;4.13;;;27.60;99.90;;;;;;5001432;28;20475;-50
2023/09/14 00:03:02;;;;;;;11.48;4.38;;;27.60;99.90;;;;;;5001767;28;20388;-51
2023/09/14 00:05:29;;;;;;;8.75;4.05;;;27.50;99.90;;;;;;5002724;28;20027;-50
2023/09/14 00:07:55;;;;;;;10.17;4.40;;;27.50;99.90;;;;;;5001167;28;20030;-51
2023/09/14 00:10:21;;;;;;;8.70;4.00;;;27.50;99.90;;;;;;4998564;28;20818;-51
2023/09/14 00:12:47;;;;;;;11.50;4.80;;;27.50;99.90;;;;;;5001821;28;20019;-52
2023/09/14 00:15:13;;;;;;;7.22;3.83;;;27.50;99.90;;;;;;4995626;28;20032;-52
2023/09/14 00:17:39;;;;;;;12.40;4.40;;;27.50;99.90;;;;;;4996015;28;20526;-51
2023/09/14 00:20:06;;;;;;;8.30;4.03;;;27.40;99.90;;;;;;5008067;28;20510;-52
2023/09/14 00:22:32;;;;;;;10.48;4.82;;;27.40;99.90;;;;;;5010929;28;20026;-51
2023/09/14 00:24:58;;;;;;;8.55;4.28;;;27.40;99.90;;;;;;5007397;28;20037;-51
2023/09/14 00:27:24;;;;;;;10.07;5.43;;;27.40;99.90;;;;;;5009948;28;20021;-51
2023/09/14 00:29:50;;;;;;;10.32;4.72;;;27.40;99.90;;;;;;5004498;28;20034;-52
2023/09/14 00:32:15;;;;;;;14.57;4.05;;;27.40;99.90;;;;;;5004598;28;20055;-51
2023/09/14 00:34:41;;;;;;;16.20;5.70;;;27.40;99.90;;;;;;5002647;28;20033;-51
2023/09/14 00:37:07;;;;;;;9.10;4.35;;;27.40;99.90;;;;;;5004453;28;20021;-51
2023/09/14 00:39:33;;;;;;;10.00;4.55;;;27.40;99.90;;;;;;5008093;28;20507;-51
2023/09/14 00:41:58;;;;;;;9.85;4.28;;;27.40;99.90;;;;;;5003767;28;20022;-51
2023/09/14 00:44:24;;;;;;;10.05;4.63;;;27.30;99.90;;;;;;5000436;28;20023;-51
2023/09/14 00:46:50;;;;;;;12.50;4.88;;;27.30;99.90;;;;;;4978746;28;20567;-52
2023/09/14 00:49:16;;;;;;;13.80;5.93;;;27.30;99.90;;;;;;5008499;28;20037;-52
2023/09/14 00:51:42;;;;;;;13.85;5.15;;;27.30;99.90;;;;;;5011806;28;20130;-51
2023/09/14 00:54:08;;;;;;;14.23;5.75;;;27.30;99.90;;;;;;5001742;28;20108;-50
2023/09/14 00:56:34;;;;;;;9.98;5.15;;;27.30;99.90;;;;;;5006460;28;20180;-51
2023/09/14 00:59:00;;;;;;;13.65;4.85;;;27.30;99.90;;;;;;5003739;28;20029;-50
2023/09/14 01:01:25;;;;;;;9.27;5.70;;;27.30;99.90;;;;;;4983956;28;20027;-52
2023/09/14 01:03:51;;;;;;;14.98;5.70;;;27.30;99.90;;;;;;4998446;28;20388;-51
2023/09/14 01:06:17;;;;;;;9.45;4.93;;;27.30;99.90;;;;;;4994492;28;20022;-51
2023/09/14 01:08:43;;;;;;;12.45;4.70;;;27.30;99.90;;;;;;4992996;28;20048;-49
2023/09/14 01:11:09;;;;;;;13.90;4.72;;;27.30;99.90;;;;;;5007972;28;20535;-51
2023/09/14 01:13:56;;;;;;;10.52;4.70;;;27.30;99.90;;;;;;5011078;28;20030;-51
2023/09/14 01:16:32;;;;;;;13.25;4.85;;;27.30;99.90;;;;;;4999969;28;20057;-51
2023/09/14 01:19:29;;;;;;;7.93;5.20;;;27.30;99.90;;;;;;5006292;28;20032;-50
2023/09/14 01:22:47;;;;;;;15.15;5.20;;;27.30;99.90;;;;;;5000247;28;20279;-51
2023/09/14 01:25:43;;;;;;;12.80;5.43;;;27.30;99.90;;;;;;4935709;28;20419;-51
2023/09/14 01:28:13;;;;;;;12.60;5.00;;;27.30;99.90;;;;;;4998201;28;20018;-51
2023/09/14 01:30:39;;;;;;;11.85;5.43;;;27.30;99.90;;;;;;4996765;28;20100;-52
2023/09/14 01:33:10;;;;;;;13.18;4.97;;;27.30;99.90;;;;;;4996921;28;20027;-52
2023/09/14 01:35:59;;;;;;;12.13;4.93;;;27.30;99.90;;;;;;5001039;28;20024;-52
2023/09/14 01:38:28;;;;;;;9.85;5.05;;;27.30;99.90;;;;;;4996699;28;20021;-53
2023/09/14 01:40:54;;;;;;;16.77;6.53;;;27.30;99.90;;;;;;4998302;28;20026;-49
2023/09/14 01:43:20;;;;;;;14.15;5.30;;;27.30;99.90;;;;;;4984293;28;20022;-50
2023/09/14 01:45:47;;;;;;;11.50;5.50;;;27.30;99.90;;;;;;5005525;28;20033;-50
2023/09/14 01:48:17;;;;;;;11.18;5.55;;;27.30;99.90;;;;;;5004557;28;20034;-51
2023/09/14 01:50:43;;;;;;;13.80;5.90;;;27.30;99.90;;;;;;5009926;28;20407;-51
2023/09/14 01:53:10;;;;;;;9.73;5.45;;;27.30;99.90;;;;;;5008476;28;20032;-51
2023/09/14 01:55:35;;;;;;;15.25;6.90;;;27.20;99.90;;;;;;5011078;28;20028;-52
2023/09/14 01:58:01;;;;;;;18.25;5.75;;;27.20;99.90;;;;;;5008806;28;20101;-51
2023/09/14 02:00:27;;;;;;;12.48;5.50;;;27.20;99.90;;;;;;4985784;28;20026;-51
2023/09/14 02:02:53;;;;;;;11.50;5.15;;;27.20;99.90;;;;;;4994110;28;20054;-51
2023/09/14 02:05:19;;;;;;;12.25;5.72;;;27.30;99.90;;;;;;4975091;28;20026;-51
2023/09/14 02:07:45;;;;;;;14.52;5.30;;;27.30;99.90;;;;;;5008423;28;20029;-53
2023/09/14 02:10:12;;;;;;;13.02;6.28;;;27.40;99.90;;;;;;5011745;28;20117;-53
2023/09/14 02:12:37;;;;;;;14.55;6.25;;;27.40;99.90;;;;;;5005717;28;20053;-52
2023/09/14 02:15:04;;;;;;;20.25;6.80;;;27.40;99.90;;;;;;5007451;28;20105;-52
2023/09/14 02:17:30;;;;;;;10.20;5.40;;;27.40;99.90;;;;;;5004690;28;20050;-52
2023/09/14 02:19:58;;;;;;;15.73;6.70;;;27.50;99.90;;;;;;5008628;28;20443;-52
2023/09/14 02:22:24;;;;;;;16.67;6.35;;;27.50;99.90;;;;;;5022753;28;20025;-52
2023/09/14 02:24:49;;;;;;;11.93;5.20;;;27.50;99.90;;;;;;4989557;28;20108;-52
2023/09/14 02:27:16;;;;;;;11.10;5.90;;;27.50;99.90;;;;;;5006255;28;20093;-52
2023/09/14 02:29:41;;;;;;;14.07;6.45;;;27.50;99.90;;;;;;5014614;28;20033;-52
2023/09/14 02:32:08;;;;;;;12.50;6.88;;;27.50;99.90;;;;;;5015997;28;20527;-52
2023/09/14 02:34:33;;;;;;;16.08;5.93;;;27.50;99.90;;;;;;5015772;28;20049;-53
2023/09/14 02:36:59;;;;;;;12.88;6.00;;;27.50;99.90;;;;;;5015742;28;20468;-52
2023/09/14 02:39:25;;;;;;;12.63;5.63;;;27.50;99.90;;;;;;5015627;28;20108;-52
2023/09/14 02:41:51;;;;;;;24.60;6.45;;;27.60;99.90;;;;;;5015642;28;20014;-52
2023/09/14 02:44:16;;;;;;;11.50;6.25;;;27.60;99.90;;;;;;5015505;28;20022;-52
2023/09/14 02:46:42;;;;;;;9.73;6.45;;;27.60;99.90;;;;;;5015518;28;20025;-52
2023/09/14 02:49:08;;;;;;;10.15;5.82;;;27.50;99.90;;;;;;5015587;28;20034;-52
2023/09/14 02:51:35;;;;;;;10.85;5.28;;;27.50;99.90;;;;;;5015331;28;20049;-51
2023/09/14 02:54:00;;;;;;;10.30;5.47;;;27.50;99.90;;;;;;5015526;28;20049;-52
2023/09/14 02:56:26;;;;;;;11.82;5.90;;;27.60;99.90;;;;;;5015426;28;20038;-52
2023/09/14 02:58:52;;;;;;;14.90;5.40;;;27.60;99.90;;;;;;5015397;28;20036;-52
2023/09/14 03:01:20;;;;;;;13.35;6.30;;;27.50;99.90;;;;;;4998219;28;20572;-52
2023/09/14 03:03:47;;;;;;;9.82;5.47;;;27.60;99.90;;;;;;5015318;28;20113;-52
2023/09/14 03:06:13;;;;;;;15.25;5.90;;;27.60;99.90;;;;;;5015290;28;20037;-52
2023/09/14 03:08:38;;;;;;;15.63;6.65;;;27.60;99.90;;;;;;5015439;28;20064;-52
2023/09/14 03:11:05;;;;;;;12.98;5.68;;;27.60;99.90;;;;;;5015054;28;20053;-52
2023/09/14 03:13:31;;;;;;;14.73;6.68;;;27.60;99.90;;;;;;5015136;28;20018;-52
2023/09/14 03:16:00;;;;;;;14.43;6.53;;;27.60;99.90;;;;;;5014997;28;20108;-52
2023/09/14 03:18:26;;;;;;;25.15;7.35;;;27.60;99.90;;;;;;4997415;28;20030;-52
2023/09/14 03:20:54;;;;;;;21.05;6.63;;;27.60;99.90;;;;;;5015140;28;20039;-52
2023/09/14 03:23:20;;;;;;;14.23;6.57;;;27.60;99.90;;;;;;5014943;28;20013;-52
2023/09/14 03:25:48;;;;;;;12.70;7.05;;;27.60;99.90;;;;;;5015063;28;20021;-52
2023/09/14 03:28:15;;;;;;;12.68;6.35;;;27.60;99.90;;;;;;5013553;28;20018;-52
2023/09/14 03:30:40;;;;;;;14.70;6.90;;;27.60;99.90;;;;;;5015164;28;20030;-52
2023/09/14 03:33:07;;;;;;;9.98;6.43;;;27.60;99.90;;;;;;5014560;28;20270;-52
2023/09/14 03:35:33;;;;;;;13.75;5.85;;;27.60;99.90;;;;;;4997064;28;20070;-52
2023/09/14 03:37:59;;;;;;;14.38;6.10;;;27.60;99.90;;;;;;5014803;28;20468;-52
2023/09/14 03:40:25;;;;;;;10.20;5.90;;;27.60;99.90;;;;;;5014507;28;20077;-52
2023/09/14 03:42:51;;;;;;;12.82;6.90;;;27.60;99.90;;;;;;5014538;28;20071;-52
2023/09/14 03:45:17;;;;;;;15.75;7.43;;;27.60;99.90;;;;;;5014396;28;20500;-52
2023/09/14 03:47:42;;;;;;;10.27;5.38;;;27.60;99.90;;;;;;5014528;28;20111;-52
2023/09/14 03:50:09;;;;;;;13.75;6.15;;;27.60;99.90;;;;;;5013390;28;20041;-52
2023/09/14 03:52:36;;;;;;;14.77;6.72;;;27.60;99.90;;;;;;5008428;28;20069;-54
2023/09/14 03:55:02;;;;;;;14.38;6.50;;;27.60;99.90;;;;;;5003642;28;20032;-52
2023/09/14 03:57:29;;;;;;;11.70;6.43;;;27.60;99.90;;;;;;5012955;28;20022;-52
2023/09/14 03:59:55;;;;;;;19.58;7.07;;;27.60;99.90;;;;;;5013548;28;20058;-52
2023/09/14 04:02:21;;;;;;;13.02;6.70;;;27.60;99.90;;;;;;5014392;28;20021;-52
2023/09/14 04:04:47;;;;;;;16.45;6.20;;;27.60;99.90;;;;;;5012862;28;20030;-52
2023/09/14 04:07:12;;;;;;;15.13;7.13;;;27.60;99.90;;;;;;5014292;28;20052;-52
2023/09/14 04:09:41;;;;;;;9.90;5.88;;;27.60;99.90;;;;;;5013633;28;20057;-52
2023/09/14 04:12:07;;;;;;;12.00;6.65;;;27.60;99.90;;;;;;5013209;28;20068;-52
2023/09/14 04:14:33;;;;;;;14.10;6.63;;;27.60;99.90;;;;;;5013842;28;20029;-52
2023/09/14 04:17:00;;;;;;;10.10;5.93;;;27.60;99.90;;;;;;5013729;28;20022;-52
2023/09/14 04:19:28;;;;;;;11.75;6.25;;;27.60;99.90;;;;;;5013919;28;20025;-52
2023/09/14 04:21:54;;;;;;;14.85;7.05;;;27.50;99.90;;;;;;5013740;28;20054;-52
2023/09/14 04:24:20;;;;;;;20.02;6.43;;;27.60;99.90;;;;;;5013774;28;20041;-52
2023/09/14 04:26:47;;;;;;;13.40;6.85;;;27.60;99.90;;;;;;5013807;28;20375;-52
2023/09/14 04:29:13;;;;;;;15.10;6.63;;;27.60;99.90;;;;;;5013765;28;20523;-53
2023/09/14 04:31:40;;;;;;;16.15;8.23;;;27.60;99.90;;;;;;5013582;28;20073;-52
2023/09/14 04:34:07;;;;;;;11.02;6.80;;;27.60;99.90;;;;;;5013519;28;20021;-52
2023/09/14 04:36:33;;;;;;;13.80;6.75;;;27.60;99.90;;;;;;5013306;28;20025;-52
2023/09/14 04:39:03;;;;;;;23.30;8.60;;;27.60;99.90;;;;;;5013158;28;20364;-52
2023/09/14 04:41:32;;;;;;;17.23;7.80;;;27.60;99.90;;;;;;5013394;28;20033;-52
2023/09/14 04:43:58;;;;;;;12.20;6.88;;;27.60;99.90;;;;;;5013348;28;20468;-52
2023/09/14 04:46:24;;;;;;;13.45;7.55;;;27.50;99.90;;;;;;5013361;28;20037;-52
2023/09/14 04:48:50;;;;;;;20.25;8.07;;;27.50;99.90;;;;;;5013414;28;20033;-52
2023/09/14 04:51:16;;;;;;;19.83;9.40;;;27.50;99.90;;;;;;5013410;28;20124;-52
2023/09/14 04:53:41;;;;;;;15.10;7.15;;;27.50;99.90;;;;;;5013324;28;20018;-52
2023/09/14 04:56:07;;;;;;;14.35;7.00;;;27.50;99.90;;;;;;5013053;28;20376;-52
2023/09/14 04:58:33;;;;;;;15.38;7.32;;;27.50;99.90;;;;;;5013267;28;20057;-52
2023/09/14 05:00:59;;;;;;;11.32;7.22;;;27.50;99.90;;;;;;5007091;28;20054;-52
2023/09/14 05:03:25;;;;;;;14.68;7.55;;;27.50;99.90;;;;;;4997355;28;20054;-52
2023/09/14 05:05:53;;;;;;;9.57;5.88;;;27.50;99.90;;;;;;5006239;28;20061;-52
2023/09/14 05:08:19;;;;;;;19.23;7.47;;;27.50;99.90;;;;;;5012114;28;20018;-52
2023/09/14 05:10:45;;;;;;;17.95;7.55;;;27.50;99.90;;;;;;5012402;28;20434;-52
2023/09/14 05:13:11;;;;;;;14.13;7.80;;;27.50;99.90;;;;;;5012702;28;20018;-52
2023/09/14 05:15:36;;;;;;;15.85;9.40;;;27.50;99.90;;;;;;5012897;28;20025;-52
2023/09/14 05:18:02;;;;;;;12.05;6.65;;;27.50;99.90;;;;;;5012774;28;20018;-52
2023/09/14 05:20:28;;;;;;;15.82;7.90;;;27.50;99.90;;;;;;4995245;28;20022;-52
2023/09/14 05:22:54;;;;;;;11.52;6.75;;;27.50;99.90;;;;;;5012540;28;20029;-50
2023/09/14 05:25:20;;;;;;;17.00;7.85;;;27.50;99.90;;;;;;5012491;28;20021;-51
2023/09/14 05:27:46;;;;;;;22.60;12.40;;;27.50;99.90;;;;;;5012933;28;20026;-53
2023/09/14 05:30:12;;;;;;;15.90;8.27;;;27.50;99.90;;;;;;5012376;28;20141;-53
2023/09/14 05:32:41;;;;;;;22.85;7.93;;;27.50;99.90;;;;;;5012365;28;20049;-53
2023/09/14 05:35:07;;;;;;;23.25;7.30;;;27.50;99.90;;;;;;5012383;28;20032;-51
2023/09/14 05:37:33;;;;;;;21.55;7.32;;;27.50;99.90;;;;;;5012380;28;20022;-51
2023/09/14 05:39:59;;;;;;;30.40;9.45;;;27.50;99.90;;;;;;5012270;28;20060;-51
2023/09/14 05:42:25;;;;;;;17.20;7.43;;;27.40;99.90;;;;;;5012218;28;20025;-51
2023/09/14 05:44:51;;;;;;;15.93;7.35;;;27.40;99.90;;;;;;5012367;28;20022;-51
2023/09/14 05:47:17;;;;;;;16.70;7.22;;;27.40;99.90;;;;;;5012525;28;20028;-51
2023/09/14 05:49:43;;;;;;;14.25;8.73;;;27.40;99.90;;;;;;5012359;28;20030;-51
2023/09/14 05:52:09;;;;;;;18.33;7.68;;;27.50;99.90;;;;;;5011419;28;20089;-51
2023/09/14 05:54:36;;;;;;;13.60;7.82;;;27.40;99.90;;;;;;5012310;28;20479;-51
2023/09/14 05:57:03;;;;;;;19.88;9.32;;;27.40;99.90;;;;;;5012274;28;20531;-51
2023/09/14 05:59:28;;;;;;;23.38;8.70;;;27.40;99.90;;;;;;5012072;28;20109;-51
2023/09/14 06:01:55;;;;;;;21.15;10.32;;;27.40;99.90;;;;;;5012167;28;20101;-51
2023/09/14 06:04:20;;;;;;;14.25;8.75;;;27.40;99.90;;;;;;5012113;28;20025;-51
2023/09/14 06:06:46;;;;;;;29.70;9.88;;;27.40;99.90;;;;;;5012188;28;20029;-51
2023/09/14 06:09:12;;;;;;;28.23;9.05;;;27.40;99.90;;;;;;4994270;28;20399;-51
2023/09/14 06:11:40;;;;;;;17.13;7.75;;;27.40;99.90;;;;;;5012056;28;20030;-51
2023/09/14 06:14:06;;;;;;;11.82;7.72;;;27.40;99.90;;;;;;5012092;28;20021;-51
2023/09/14 06:16:32;;;;;;;17.02;7.47;;;27.40;99.90;;;;;;5011916;28;20361;-51
2023/09/14 06:18:57;;;;;;;17.05;8.20;;;27.40;99.90;;;;;;5011942;28;20021;-51
2023/09/14 06:21:23;;;;;;;15.32;10.30;;;27.40;99.90;;;;;;5011885;28;20022;-51
2023/09/14 06:23:49;;;;;;;27.40;10.70;;;27.40;99.90;;;;;;4994432;28;20108;-51
2023/09/14 06:26:15;;;;;;;16.20;8.52;;;27.40;99.90;;;;;;5011783;28;20037;-51
2023/09/14 06:28:41;;;;;;;18.55;8.20;;;27.40;99.90;;;;;;5011745;28;20040;-51
2023/09/14 06:31:07;;;;;;;19.27;8.20;;;27.40;99.90;;;;;;5011809;28;20100;-52
2023/09/14 06:33:32;;;;;;;19.80;9.10;;;27.40;99.90;;;;;;5011729;28;20116;-52
2023/09/14 06:35:58;;;;;;;15.07;8.00;;;27.40;99.90;;;;;;5011932;28;20490;-52
2023/09/14 06:38:24;;;;;;;15.27;7.65;;;27.40;99.90;;;;;;5011753;28;20018;-52
2023/09/14 06:40:50;;;;;;;20.40;8.55;;;27.50;99.90;;;;;;5012235;28;20537;-52
2023/09/14 06:43:16;;;;;;;20.80;8.18;;;27.40;99.90;;;;;;5011662;28;20361;-51
2023/09/14 06:45:42;;;;;;;22.08;9.13;;;27.40;99.90;;;;;;5011711;28;20088;-51
2023/09/14 06:48:08;;;;;;;15.15;7.63;;;27.40;99.90;;;;;;5011500;28;20101;-52
2023/09/14 06:50:33;;;;;;;14.50;7.70;;;27.40;99.90;;;;;;5011539;28;20030;-52
2023/09/14 06:52:59;;;;;;;16.05;7.47;;;27.40;99.90;;;;;;5011586;28;20046;-52
2023/09/14 06:55:25;;;;;;;17.65;7.75;;;27.40;99.90;;;;;;4994049;28;20025;-52
2023/09/14 06:57:51;;;;;;;17.30;7.25;;;27.50;99.90;;;;;;5011628;28;20560;-51
2023/09/14 07:00:21;;;;;;;12.88;6.50;;;27.50;99.90;;;;;;5011563;28;20061;-52
2023/09/14 07:02:52;;;;;;;10.23;7.40;;;27.50;99.90;;;;;;4995753;28;20503;-52
2023/09/14 07:05:18;;;;;;;15.55;7.10;;;27.50;99.90;;;;;;5015209;28;20040;-52
2023/09/14 07:07:43;;;;;;;8.68;6.05;;;27.50;99.90;;;;;;5014984;28;20022;-51
2023/09/14 07:10:10;;;;;;;14.35;6.90;;;27.50;99.90;;;;;;5015138;28;20521;-51
2023/09/14 07:12:36;;;;;;;10.57;6.15;;;27.60;99.90;;;;;;5015071;28;20404;-52
2023/09/14 07:15:02;;;;;;;16.00;6.57;;;27.60;99.90;;;;;;5015037;28;20036;-52
2023/09/14 07:17:28;;;;;;;11.63;6.22;;;27.60;99.90;;;;;;5014987;28;20523;-52
2023/09/14 07:19:54;;;;;;;12.13;6.65;;;27.60;99.90;;;;;;5015076;28;20017;-52
2023/09/14 07:22:20;;;;;;;17.30;6.47;;;27.70;99.90;;;;;;5015077;28;20084;-52
2023/09/14 07:24:46;;;;;;;12.75;7.18;;;27.60;99.90;;;;;;4997379;28;20319;-52
2023/09/14 07:27:13;;;;;;;15.27;6.60;;;27.70;99.90;;;;;;5014941;28;20022;-52
2023/09/14 07:29:39;;;;;;;13.82;6.35;;;27.70;99.90;;;;;;5014702;28;20042;-52
2023/09/14 07:32:06;;;;;;;14.48;6.05;;;27.70;99.90;;;;;;5014779;28;20026;-52
2023/09/14 07:34:32;;;;;;;15.15;6.57;;;27.70;99.90;;;;;;5014794;28;20029;-51
2023/09/14 07:36:58;;;;;;;14.15;6.65;;;27.70;99.90;;;;;;5014527;28;20097;-53
2023/09/14 07:39:23;;;;;;;13.52;6.05;;;27.70;99.90;;;;;;5014918;28;20108;-53
2023/09/14 07:41:55;;;;;;;10.88;6.63;;;27.80;99.90;;;;;;5014603;28;20026;-51
2023/09/14 07:44:21;;;;;;;12.38;6.15;;;27.80;99.90;;;;;;5014483;28;20041;-52
2023/09/14 07:46:47;;;;;;;13.55;7.47;;;27.90;99.90;;;;;;5014358;28;20384;-52
2023/09/14 07:49:12;;;;;;;15.05;6.53;;;27.90;99.90;;;;;;5014359;28;20038;-51
2023/09/14 07:51:38;;;;;;;12.73;6.40;;;27.90;99.90;;;;;;5014294;28;20050;-51
2023/09/14 07:54:04;;;;;;;17.92;7.28;;;28.00;99.90;;;;;;5014337;28;20561;-51
2023/09/14 07:56:30;;;;;;;15.40;5.93;;;27.90;99.90;;;;;;4996769;28;20368;-52
2023/09/14 07:58:56;;;;;;;11.63;5.53;;;28.00;99.90;;;;;;5014450;28;20026;-52
2023/09/14 08:01:22;;;;;;;10.60;6.40;;;28.00;99.90;;;;;;5000523;28;20076;-52
2023/09/14 08:03:49;;;;;;;15.20;6.03;;;28.00;99.90;;;;;;5014173;28;20025;-52
2023/09/14 08:06:18;;;;;;;17.98;6.43;;;28.00;99.90;;;;;;5014029;28;20026;-52
2023/09/14 08:08:44;;;;;;;15.95;6.55;;;28.00;99.90;;;;;;5013990;28;20026;-52
2023/09/14 08:11:11;;;;;;;13.63;6.10;;;28.10;99.90;;;;;;4996356;28;20728;-52
2023/09/14 08:13:37;;;;;;;9.82;5.65;;;28.10;99.90;;;;;;5014009;28;20018;-52
2023/09/14 08:16:06;;;;;;;18.83;5.70;;;28.10;99.90;;;;;;4995914;28;20469;-53
2023/09/14 08:18:32;;;;;;;13.63;5.95;;;28.10;99.90;;;;;;5014012;28;20359;-52
2023/09/14 08:20:58;;;;;;;11.30;5.65;;;28.20;99.90;;;;;;5014024;28;20033;-52
2023/09/14 08:23:24;;;;;;;11.80;5.47;;;28.10;99.90;;;;;;5013762;28;20349;-52
2023/09/14 08:25:50;;;;;;;15.48;5.30;;;28.10;99.90;;;;;;5013674;28;20026;-52
2023/09/14 08:28:17;;;;;;;12.40;5.47;;;28.20;99.90;;;;;;5013428;28;20087;-53
2023/09/14 08:30:44;;;;;;;16.25;5.88;;;28.20;99.90;;;;;;5013530;28;20045;-52
2023/09/14 08:33:11;;;;;;;9.73;5.93;;;28.20;99.90;;;;;;5013495;28;20083;-52
2023/09/14 08:35:37;;;;;;;15.63;6.47;;;28.20;99.90;;;;;;4996014;28;20026;-52
2023/09/14 08:38:06;;;;;;;12.30;5.90;;;28.20;99.90;;;;;;5013433;28;20028;-52
2023/09/14 08:40:34;;;;;;;12.93;7.90;;;28.30;99.90;;;;;;5000234;28;20499;-53
2023/09/14 08:43:00;;;;;;;13.18;5.57;;;28.30;99.90;;;;;;5013859;28;20353;-52
2023/09/14 08:45:29;;;;;;;13.35;5.60;;;28.30;99.90;;;;;;5013541;28;20446;-52
2023/09/14 08:47:55;;;;;;;15.55;6.10;;;28.30;99.90;;;;;;5013348;28;20029;-52
2023/09/14 08:50:26;;;;;;;12.68;5.97;;;28.30;99.90;;;;;;5013393;28;20038;-52
2023/09/14 08:52:53;;;;;;;11.55;6.30;;;28.30;99.90;;;;;;5013296;28;20038;-52
2023/09/14 08:55:24;;;;;;;13.57;5.90;;;28.30;99.90;;;;;;4995501;28;20365;-52
2023/09/14 08:57:51;;;;;;;13.15;5.90;;;28.40;99.90;;;;;;5013177;28;20058;-52
2023/09/14 09:00:18;;;;;;;12.48;5.78;;;28.40;99.90;;;;;;5013195;28;20026;-52
2023/09/14 09:02:46;;;;;;;12.27;5.80;;;28.50;99.90;;;;;;5012991;28;20129;-52
2023/09/14 09:05:12;;;;;;;;;;;28.50;99.90;;;;;;5013935;28;20025;-52
2023/09/14 09:07:40;;;;;;;13.17;6.03;;;28.50;99.90;;;;;;5012789;28;19905;-52
2023/09/14 09:10:07;;;;;;;;;;;28.50;99.90;;;;;;5013377;28;20358;-52
2023/09/14 09:12:33;;;;;;;9.80;5.43;;;28.50;99.90;;;;;;4995211;28;19906;-52
2023/09/14 09:15:01;;;;;;;12.65;6.05;;;28.50;99.90;;;;;;5013077;28;20500;-52
2023/09/14 09:17:27;;;;;;;12.48;5.18;;;28.50;99.90;;;;;;4995124;28;20048;-52
2023/09/14 09:19:53;;;;;;;14.48;6.00;;;28.50;99.90;;;;;;5012492;28;20104;-52
2023/09/14 09:22:20;;;;;;;12.88;6.45;;;28.50;99.90;;;;;;5012479;28;20148;-52
2023/09/14 09:24:45;;;;;;;10.88;5.65;;;28.50;99.90;;;;;;5012348;28;20101;-52
2023/09/14 09:27:27;;;;;;;18.05;6.57;;;28.50;99.90;;;;;;5011871;28;20097;-52
2023/09/14 09:30:00;;;;;;;10.50;5.47;;;28.60;99.90;;;;;;5012789;28;20436;-52
2023/09/14 09:32:25;;;;;;;10.93;6.25;;;28.60;99.90;;;;;;5012618;28;20033;-53
2023/09/14 09:34:51;;;;;;;14.65;5.97;;;28.60;99.90;;;;;;5012597;28;20029;-53
2023/09/14 09:37:18;;;;;;;10.25;5.97;;;28.60;99.90;;;;;;5012535;28;20097;-52
2023/09/14 09:39:44;;;;;;;9.33;5.33;;;28.60;99.90;;;;;;5012489;28;20065;-52
2023/09/14 09:42:13;;;;;;;11.95;5.63;;;28.60;99.90;;;;;;5012231;28;20022;-52
2023/09/14 09:44:39;;;;;;;14.52;6.15;;;28.60;99.90;;;;;;5012387;28;20092;-52
2023/09/14 09:47:10;;;;;;;17.60;6.40;;;28.50;99.90;;;;;;5012246;28;20022;-52
2023/09/14 09:49:36;;;;;;;13.43;6.05;;;28.50;99.90;;;;;;5012588;28;20410;-52
2023/09/14 09:52:02;;;;;;;11.60;5.43;;;28.60;99.90;;;;;;5012564;28;20129;-52
2023/09/14 09:54:30;;;;;;;12.68;6.47;;;28.50;99.90;;;;;;5012171;28;20403;-52
2023/09/14 09:56:56;;;;;;;12.38;5.93;;;28.50;99.90;;;;;;5012029;28;20037;-52
2023/09/14 09:59:25;;;;;;;10.68;5.63;;;28.50;99.90;;;;;;5011962;28;20423;-52
2023/09/14 10:01:51;;;;;;;12.70;6.43;;;28.50;99.90;;;;;;5012220;28;20133;-52
2023/09/14 10:04:17;;;;;;;9.85;6.18;;;28.50;99.90;;;;;;5012081;28;20030;-52
2023/09/14 10:06:51;;;;;;;11.43;6.20;;;28.50;99.90;;;;;;5011973;28;20022;-53
2023/09/14 10:09:17;;;;;;;10.27;6.15;;;28.50;99.90;;;;;;4986575;28;20144;-52
2023/09/14 10:11:46;;;;;;;14.75;6.20;;;28.60;99.90;;;;;;5001660;28;20369;-52
2023/09/14 10:14:15;;;;;;;15.23;5.80;;;28.60;99.90;;;;;;4998966;28;20061;-52
2023/09/14 10:16:43;;;;;;;15.02;5.88;;;28.70;99.90;;;;;;5000379;28;20062;-52
2023/09/14 10:19:09;;;;;;;12.82;5.88;;;28.70;99.90;;;;;;5006537;28;20056;-53
2023/09/14 10:21:36;;;;;;;12.57;5.90;;;28.80;99.90;;;;;;5005740;28;20026;-52
2023/09/14 10:24:06;;;;;;;16.50;7.63;;;28.90;99.90;;;;;;5005643;28;20022;-52
2023/09/14 10:26:36;;;;;;;15.80;6.15;;;29.00;99.90;;;;;;5011015;28;20022;-52
2023/09/14 10:29:08;;;;;;;14.70;6.13;;;29.00;99.90;;;;;;5005165;28;20519;-53
2023/09/14 10:31:39;;;;;;;13.45;5.05;;;29.10;99.90;;;;;;5002965;28;20117;-52
2023/09/14 10:34:08;;;;;;;14.95;6.05;;;29.20;99.90;;;;;;4981302;28;20018;-53
2023/09/14 10:36:35;;;;;;;19.20;5.53;;;29.20;99.90;;;;;;5005030;28;20041;-52
2023/09/14 10:39:05;;;;;;;12.32;5.68;;;29.40;99.90;;;;;;5007837;28;20050;-53
2023/09/14 10:41:31;;;;;;;13.85;5.03;;;29.50;99.90;;;;;;5008966;28;20021;-53
2023/09/14 10:43:58;;;;;;;10.40;4.57;;;29.60;99.90;;;;;;5008188;28;20117;-53
2023/09/14 10:46:36;;;;;;;11.57;5.03;;;29.70;99.90;;;;;;5005808;28;20041;-52
2023/09/14 10:49:02;;;;;;;15.77;5.82;;;29.70;99.90;;;;;;4989298;28;20030;-53
2023/09/14 10:51:29;;;;;;;10.23;5.60;;;29.80;99.90;;;;;;5008392;28;20416;-53
2023/09/14 10:53:55;;;;;;;12.80;5.50;;;29.90;99.90;;;;;;4997271;28;20380;-52
2023/09/14 10:56:30;;;;;;;9.20;5.07;;;29.90;99.90;;;;;;5015434;28;20029;-53
2023/09/14 10:58:57;;;;;;;12.07;5.18;;;30.00;99.90;;;;;;5015224;28;20029;-53
2023/09/14 11:01:25;;;;;;;17.52;7.25;;;30.10;99.90;;;;;;5008349;28;20057;-52
2023/09/14 11:04:13;;;;;;;12.00;5.22;;;30.10;99.90;;;;;;4985354;28;20038;-53
2023/09/14 11:06:48;;;;;;;13.88;5.45;;;30.10;99.90;;;;;;5003387;28;20053;-52
2023/09/14 11:09:14;;;;;;;13.50;5.20;;;30.10;99.90;;;;;;5004995;28;20070;-53
2023/09/14 11:11:44;;;;;;;15.48;4.80;;;30.20;99.90;;;;;;5015349;28;20523;-52
2023/09/14 11:14:13;;;;;;;10.20;4.90;;;30.20;99.90;;;;;;5015115;28;20113;-52
2023/09/14 11:16:53;;;;;;;12.30;5.45;;;30.20;99.90;;;;;;4997311;28;20484;-53
2023/09/14 11:19:31;;;;;;;13.43;5.40;;;30.20;99.90;;;;;;5014816;28;20058;-52
2023/09/14 11:22:17;;;;;;;15.40;5.43;;;30.30;99.90;;;;;;5002977;28;20057;-53
2023/09/14 11:24:44;;;;;;;12.80;5.43;;;30.30;99.90;;;;;;5014308;28;20068;-52
2023/09/14 11:27:19;;;;;;;10.57;5.25;;;30.40;99.90;;;;;;4996944;28;20598;-52
2023/09/14 11:29:46;;;;;;;12.00;5.10;;;30.40;99.90;;;;;;5014359;28;20041;-52
2023/09/14 11:32:19;;;;;;;14.05;5.03;;;30.40;99.90;;;;;;5014754;28;20017;-53
2023/09/14 11:34:45;;;;;;;14.27;5.53;;;30.30;99.90;;;;;;5014493;28;20026;-52
2023/09/14 11:37:15;;;;;;;12.27;4.55;;;30.30;99.90;;;;;;5014524;28;20037;-53
2023/09/14 11:39:43;;;;;;;13.95;4.55;;;30.40;99.90;;;;;;5014421;28;20067;-53
2023/09/14 11:42:08;;;;;;;;;;;30.40;99.90;;;;;;5012722;28;20555;-54
2023/09/14 11:44:49;;;;;;;18.30;5.07;;;30.40;99.90;;;;;;5003323;28;19956;-52
2023/09/14 11:47:16;;;;;;;13.95;5.50;;;30.50;99.90;;;;;;4985264;28;20088;-52
2023/09/14 11:49:44;;;;;;;15.85;4.53;;;30.50;99.90;;;;;;5003458;28;20034;-53
2023/09/14 11:52:11;;;;;;;17.02;4.82;;;30.60;99.90;;;;;;5005789;28;20372;-53
2023/09/14 11:54:37;;;;;;;;;;;30.60;99.90;;;;;;5006443;28;20037;-52
2023/09/14 11:57:07;;;;;;;14.07;4.38;;;30.70;99.90;;;;;;5004697;28;19917;-52
2023/09/14 11:59:33;;;;;;;9.13;4.38;;;30.70;99.90;;;;;;5003557;28;20038;-53
2023/09/14 12:02:01;;;;;;;17.90;5.43;;;30.80;99.90;;;;;;5003877;28;20026;-52
2023/09/14 12:04:31;;;;;;;16.05;5.75;;;30.80;99.90;;;;;;5005681;28;20030;-53
2023/09/14 12:07:00;;;;;;;14.57;4.78;;;30.80;99.90;;;;;;5003976;28;20018;-52
2023/09/14 12:09:36;;;;;;;13.82;4.72;;;30.90;99.90;;;;;;5004784;28;20038;-52
2023/09/14 12:12:02;;;;;;;10.60;4.28;;;30.90;99.90;;;;;;5003694;28;20030;-52
2023/09/14 12:14:43;;;;;;;9.55;4.60;;;30.80;99.90;;;;;;5002736;28;20088;-50
2023/09/14 12:17:20;;;;;;;14.43;5.65;;;30.80;99.90;;;;;;5002983;28;20440;-53
2023/09/14 12:19:51;;;;;;;14.75;4.90;;;30.90;99.90;;;;;;5004421;28;20526;-52
2023/09/14 12:22:19;;;;;;;14.55;6.07;;;30.80;99.90;;;;;;5004953;28;20077;-53
2023/09/14 12:24:45;;;;;;;13.68;5.00;;;30.80;99.90;;;;;;5004750;28;20010;-53
2023/09/14 12:27:13;;;;;;;13.82;4.80;;;30.90;99.90;;;;;;5004170;28;20042;-53
2023/09/14 12:29:41;;;;;;;11.68;4.78;;;30.80;99.90;;;;;;5004806;28;20034;-53
2023/09/14 12:32:07;;;;;;;12.48;5.03;;;30.80;99.90;;;;;;5002931;28;20353;-53
2023/09/14 12:34:33;;;;;;;13.85;4.50;;;30.80;99.90;;;;;;5004507;28;20452;-53
2023/09/14 12:37:01;;;;;;;11.27;5.25;;;30.80;99.90;;;;;;5003465;28;20064;-53
2023/09/14 12:39:27;;;;;;;16.77;5.85;;;30.80;99.90;;;;;;5003713;28;20022;-53